SAVV/VDM METAR and TAF weather

Enter ICAO airport designator
Station Type Date Time Source
SAVV METAR 2021/07/25 13:28 UTC NOAA

SAVV 251328Z 32007KT 2000 BR FEW006 SCT200 01/M02 Q1011


Station Type Date Time Source
SAVV Decoded METAR 2021/07/25 13:28 UTC NOAA

Viedma Aerodrome, Argentina (SAVV) 40-51S 063-01W 7M
Jul 25, 2021 - 09:28 AM EDT / 2021.07.25 1328 UTC
Wind: from the NW (320 degrees) at 8 MPH (7 KT):0
Visibility: 1 mile(s):0
Sky conditions: partly cloudy
Weather: mist
Temperature: 33 F (1 C)
Windchill: 26 F (-3 C):1
Dew Point: 28 F (-2 C)
Relative Humidity: 80%
Pressure (altimeter): 29.85 in. Hg (1011 hPa)
ob: SAVV 251328Z 32007KT 2000 BR FEW006 SCT200 01/M02 Q1011
cycle: 13

Station Type Date Time Source
SAVV TAF 2021/07/24 00:33 UTC NOAA

TAF SAVV 242300Z 2500/2524 VRB03KT CAVOK TX13/2518Z TN03/2508Z PROB40
TEMPO 2506/2512 3000 BR NSC
BECMG 2513/2515 29008KT BEMCG 2516/2518 23015KT

Example: see airport list